sensor_id;sensor_type;location;lat;lon;timestamp;temperature;humidity
24408;DHT22;12542;50.924;4.516;2022-09-17T00:01:16;12.10;99.90
24408;DHT22;12542;50.924;4.516;2022-09-17T00:03:43;12.20;99.90
24408;DHT22;12542;50.924;4.516;2022-09-17T00:06:11;12.20;99.90
24408;DHT22;12542;50.924;4.516;2022-09-17T00:08:39;12.20;99.90
24408;DHT22;12542;50.924;4.516;2022-09-17T00:11:11;12.20;99.90
24408;DHT22;12542;50.924;4.516;2022-09-17T00:13:38;12.20;99.90
24408;DHT22;12542;50.924;4.516;2022-09-17T00:16:04;12.20;99.90
24408;DHT22;12542;50.924;4.516;2022-09-17T00:18:30;12.20;99.90
24408;DHT22;12542;50.924;4.516;2022-09-17T00:20:56;12.20;99.90
24408;DHT22;12542;50.924;4.516;2022-09-17T00:23:22;12.10;99.90
24408;DHT22;12542;50.924;4.516;2022-09-17T00:25:48;12.10;99.90
24408;DHT22;12542;50.924;4.516;2022-09-17T00:28:14;12.00;99.90
24408;DHT22;12542;50.924;4.516;2022-09-17T00:30:42;12.20;99.90
24408;DHT22;12542;50.924;4.516;2022-09-17T00:33:11;12.20;99.90
24408;DHT22;12542;50.924;4.516;2022-09-17T00:35:37;12.20;99.90
24408;DHT22;12542;50.924;4.516;2022-09-17T00:38:03;12.20;99.90
24408;DHT22;12542;50.924;4.516;2022-09-17T00:40:29;12.30;99.90
24408;DHT22;12542;50.924;4.516;2022-09-17T00:42:55;12.30;99.90
24408;DHT22;12542;50.924;4.516;2022-09-17T00:45:21;12.20;99.90
24408;DHT22;12542;50.924;4.516;2022-09-17T00:48:02;12.40;99.90
24408;DHT22;12542;50.924;4.516;2022-09-17T00:50:33;12.40;99.90
24408;DHT22;12542;50.924;4.516;2022-09-17T00:53:08;12.40;99.90
24408;DHT22;12542;50.924;4.516;2022-09-17T00:55:38;12.30;99.90
24408;DHT22;12542;50.924;4.516;2022-09-17T00:58:09;12.40;99.90
24408;DHT22;12542;50.924;4.516;2022-09-17T01:00:35;12.40;99.90
24408;DHT22;12542;50.924;4.516;2022-09-17T01:03:02;12.50;99.90
24408;DHT22;12542;50.924;4.516;2022-09-17T01:11:20;12.40;99.90
24408;DHT22;12542;50.924;4.516;2022-09-17T01:14:52;12.40;99.90
24408;DHT22;12542;50.924;4.516;2022-09-17T01:17:14;12.40;99.90
24408;DHT22;12542;50.924;4.516;2022-09-17T01:22:55;12.30;99.90
24408;DHT22;12542;50.924;4.516;2022-09-17T01:28:19;12.50;99.90
24408;DHT22;12542;50.924;4.516;2022-09-17T01:33:55;12.40;99.90
24408;DHT22;12542;50.924;4.516;2022-09-17T01:36:46;12.50;99.90
24408;DHT22;12542;50.924;4.516;2022-09-17T01:47:22;12.60;99.90
24408;DHT22;12542;50.924;4.516;2022-09-17T01:49:54;12.50;99.90
24408;DHT22;12542;50.924;4.516;2022-09-17T01:52:22;12.50;99.90
24408;DHT22;12542;50.924;4.516;2022-09-17T01:54:52;12.60;99.90
24408;DHT22;12542;50.924;4.516;2022-09-17T02:00:05;12.50;99.90
24408;DHT22;12542;50.924;4.516;2022-09-17T02:02:35;12.50;99.90
24408;DHT22;12542;50.924;4.516;2022-09-17T02:05:10;12.50;99.90
24408;DHT22;12542;50.924;4.516;2022-09-17T02:07:41;12.50;99.90
24408;DHT22;12542;50.924;4.516;2022-09-17T02:10:12;12.40;99.90
24408;DHT22;12542;50.924;4.516;2022-09-17T02:12:47;12.50;99.90
24408;DHT22;12542;50.924;4.516;2022-09-17T02:15:21;12.50;99.90
24408;DHT22;12542;50.924;4.516;2022-09-17T02:17:53;12.50;99.90
24408;DHT22;12542;50.924;4.516;2022-09-17T02:20:25;12.60;99.90
24408;DHT22;12542;50.924;4.516;2022-09-17T02:23:01;12.60;99.90
24408;DHT22;12542;50.924;4.516;2022-09-17T02:25:53;12.60;99.90
24408;DHT22;12542;50.924;4.516;2022-09-17T02:28:32;12.60;99.90
24408;DHT22;12542;50.924;4.516;2022-09-17T02:30:59;12.40;99.90
24408;DHT22;12542;50.924;4.516;2022-09-17T02:33:29;12.50;99.90
24408;DHT22;12542;50.924;4.516;2022-09-17T02:35:58;12.50;99.90
24408;DHT22;12542;50.924;4.516;2022-09-17T02:38:26;12.60;99.90
24408;DHT22;12542;50.924;4.516;2022-09-17T02:41:22;12.60;99.90
24408;DHT22;12542;50.924;4.516;2022-09-17T02:52:05;12.70;99.90
24408;DHT22;12542;50.924;4.516;2022-09-17T03:00:21;12.70;99.90
24408;DHT22;12542;50.924;4.516;2022-09-17T03:03:02;12.70;99.90
24408;DHT22;12542;50.924;4.516;2022-09-17T03:05:31;12.60;99.90
24408;DHT22;12542;50.924;4.516;2022-09-17T03:07:58;12.50;99.90
24408;DHT22;12542;50.924;4.516;2022-09-17T03:10:25;12.60;99.90
24408;DHT22;12542;50.924;4.516;2022-09-17T03:12:56;12.60;99.90
24408;DHT22;12542;50.924;4.516;2022-09-17T03:15:21;12.50;99.90
24408;DHT22;12542;50.924;4.516;2022-09-17T03:17:47;12.40;99.90
24408;DHT22;12542;50.924;4.516;2022-09-17T03:20:14;12.30;99.90
24408;DHT22;12542;50.924;4.516;2022-09-17T03:22:40;12.40;99.90
24408;DHT22;12542;50.924;4.516;2022-09-17T03:25:07;12.30;99.90
24408;DHT22;12542;50.924;4.516;2022-09-17T03:27:32;12.30;99.90
24408;DHT22;12542;50.924;4.516;2022-09-17T03:29:58;12.10;99.90
24408;DHT22;12542;50.924;4.516;2022-09-17T03:32:25;12.20;99.90
24408;DHT22;12542;50.924;4.516;2022-09-17T03:34:50;12.30;99.90
24408;DHT22;12542;50.924;4.516;2022-09-17T03:37:18;12.20;99.90
24408;DHT22;12542;50.924;4.516;2022-09-17T03:39:44;12.20;99.90
24408;DHT22;12542;50.924;4.516;2022-09-17T03:42:10;12.20;99.90
24408;DHT22;12542;50.924;4.516;2022-09-17T03:44:36;12.20;99.90
24408;DHT22;12542;50.924;4.516;2022-09-17T03:47:01;12.30;99.90
24408;DHT22;12542;50.924;4.516;2022-09-17T03:49:27;12.30;99.90
24408;DHT22;12542;50.924;4.516;2022-09-17T03:51:54;12.30;99.90
24408;DHT22;12542;50.924;4.516;2022-09-17T03:54:19;12.20;99.90
24408;DHT22;12542;50.924;4.516;2022-09-17T03:56:48;12.20;99.90
24408;DHT22;12542;50.924;4.516;2022-09-17T03:59:14;12.20;99.90
24408;DHT22;12542;50.924;4.516;2022-09-17T04:01:40;12.20;99.90
24408;DHT22;12542;50.924;4.516;2022-09-17T04:04:06;12.20;99.90
24408;DHT22;12542;50.924;4.516;2022-09-17T04:06:32;12.20;99.90
24408;DHT22;12542;50.924;4.516;2022-09-17T04:08:58;12.10;99.90
24408;DHT22;12542;50.924;4.516;2022-09-17T04:11:25;12.20;99.90
24408;DHT22;12542;50.924;4.516;2022-09-17T04:13:51;12.20;99.90
24408;DHT22;12542;50.924;4.516;2022-09-17T04:16:17;12.10;99.90
24408;DHT22;12542;50.924;4.516;2022-09-17T04:18:43;12.00;99.90
24408;DHT22;12542;50.924;4.516;2022-09-17T04:21:09;12.00;99.90
24408;DHT22;12542;50.924;4.516;2022-09-17T04:23:35;12.00;99.90
24408;DHT22;12542;50.924;4.516;2022-09-17T04:26:01;12.00;99.90
24408;DHT22;12542;50.924;4.516;2022-09-17T04:28:26;12.10;99.90
24408;DHT22;12542;50.924;4.516;2022-09-17T04:30:52;12.10;99.90
24408;DHT22;12542;50.924;4.516;2022-09-17T04:33:18;12.00;99.90
24408;DHT22;12542;50.924;4.516;2022-09-17T04:35:44;11.90;99.90
24408;DHT22;12542;50.924;4.516;2022-09-17T04:38:09;12.00;99.90
24408;DHT22;12542;50.924;4.516;2022-09-17T04:40:39;11.90;99.90
24408;DHT22;12542;50.924;4.516;2022-09-17T04:43:07;12.00;99.90
24408;DHT22;12542;50.924;4.516;2022-09-17T04:45:33;12.10;99.90
24408;DHT22;12542;50.924;4.516;2022-09-17T04:47:59;12.10;99.90
24408;DHT22;12542;50.924;4.516;2022-09-17T04:50:26;12.20;99.90
24408;DHT22;12542;50.924;4.516;2022-09-17T04:52:52;12.00;99.90
24408;DHT22;12542;50.924;4.516;2022-09-17T04:55:17;11.90;99.90
24408;DHT22;12542;50.924;4.516;2022-09-17T04:57:48;11.90;99.90
24408;DHT22;12542;50.924;4.516;2022-09-17T05:00:15;11.80;99.90
24408;DHT22;12542;50.924;4.516;2022-09-17T05:02:45;11.70;99.90
24408;DHT22;12542;50.924;4.516;2022-09-17T05:05:11;11.80;99.90
24408;DHT22;12542;50.924;4.516;2022-09-17T05:07:40;11.80;99.90
24408;DHT22;12542;50.924;4.516;2022-09-17T05:10:08;11.80;99.90
24408;DHT22;12542;50.924;4.516;2022-09-17T05:12:34;11.80;99.90
24408;DHT22;12542;50.924;4.516;2022-09-17T05:15:00;11.80;99.90
24408;DHT22;12542;50.924;4.516;2022-09-17T05:17:26;11.80;99.90
24408;DHT22;12542;50.924;4.516;2022-09-17T05:19:51;11.90;99.90
24408;DHT22;12542;50.924;4.516;2022-09-17T05:22:20;11.80;99.90
24408;DHT22;12542;50.924;4.516;2022-09-17T05:24:46;12.00;99.90
24408;DHT22;12542;50.924;4.516;2022-09-17T05:27:12;11.90;99.90
24408;DHT22;12542;50.924;4.516;2022-09-17T05:29:38;12.00;99.90
24408;DHT22;12542;50.924;4.516;2022-09-17T05:32:05;12.10;99.90
24408;DHT22;12542;50.924;4.516;2022-09-17T05:34:31;12.10;99.90
24408;DHT22;12542;50.924;4.516;2022-09-17T05:36:57;12.20;99.90
24408;DHT22;12542;50.924;4.516;2022-09-17T05:39:24;12.20;99.90
24408;DHT22;12542;50.924;4.516;2022-09-17T05:41:53;12.20;99.90
24408;DHT22;12542;50.924;4.516;2022-09-17T05:44:20;12.00;99.90
24408;DHT22;12542;50.924;4.516;2022-09-17T05:46:46;12.00;99.90
24408;DHT22;12542;50.924;4.516;2022-09-17T05:49:13;12.10;99.90
24408;DHT22;12542;50.924;4.516;2022-09-17T05:51:42;11.90;99.90
24408;DHT22;12542;50.924;4.516;2022-09-17T05:54:14;11.80;99.90
24408;DHT22;12542;50.924;4.516;2022-09-17T05:56:40;11.80;99.90
24408;DHT22;12542;50.924;4.516;2022-09-17T05:59:06;11.90;99.90
24408;DHT22;12542;50.924;4.516;2022-09-17T06:01:32;11.90;99.90
24408;DHT22;12542;50.924;4.516;2022-09-17T06:03:58;12.00;99.90
24408;DHT22;12542;50.924;4.516;2022-09-17T06:06:27;12.10;99.90
24408;DHT22;12542;50.924;4.516;2022-09-17T06:08:54;12.20;99.90
24408;DHT22;12542;50.924;4.516;2022-09-17T06:11:19;12.30;99.90
24408;DHT22;12542;50.924;4.516;2022-09-17T06:13:45;12.40;99.90
24408;DHT22;12542;50.924;4.516;2022-09-17T06:16:11;12.50;99.90
24408;DHT22;12542;50.924;4.516;2022-09-17T06:18:37;12.60;99.90
24408;DHT22;12542;50.924;4.516;2022-09-17T06:21:03;12.50;99.90
24408;DHT22;12542;50.924;4.516;2022-09-17T06:23:33;12.70;99.90
24408;DHT22;12542;50.924;4.516;2022-09-17T06:26:04;12.80;99.90
24408;DHT22;12542;50.924;4.516;2022-09-17T06:28:31;12.80;99.90
24408;DHT22;12542;50.924;4.516;2022-09-17T06:31:01;12.80;99.90
24408;DHT22;12542;50.924;4.516;2022-09-17T06:33:27;12.80;99.90
24408;DHT22;12542;50.924;4.516;2022-09-17T06:36:03;12.80;99.90
24408;DHT22;12542;50.924;4.516;2022-09-17T06:38:31;12.90;99.90
24408;DHT22;12542;50.924;4.516;2022-09-17T06:40:57;12.80;99.90
24408;DHT22;12542;50.924;4.516;2022-09-17T06:43:23;13.00;99.90
24408;DHT22;12542;50.924;4.516;2022-09-17T06:45:53;13.20;99.90
24408;DHT22;12542;50.924;4.516;2022-09-17T06:48:21;14.40;99.90
24408;DHT22;12542;50.924;4.516;2022-09-17T06:50:47;16.80;99.90
24408;DHT22;12542;50.924;4.516;2022-09-17T06:53:13;17.80;99.90
24408;DHT22;12542;50.924;4.516;2022-09-17T06:55:40;17.50;99.90
24408;DHT22;12542;50.924;4.516;2022-09-17T06:58:06;17.10;99.90
24408;DHT22;12542;50.924;4.516;2022-09-17T07:00:32;16.70;99.90
24408;DHT22;12542;50.924;4.516;2022-09-17T07:02:59;16.30;99.90
24408;DHT22;12542;50.924;4.516;2022-09-17T07:05:27;16.10;99.90
24408;DHT22;12542;50.924;4.516;2022-09-17T07:07:53;17.30;99.90
24408;DHT22;12542;50.924;4.516;2022-09-17T07:10:19;19.90;99.90
24408;DHT22;12542;50.924;4.516;2022-09-17T07:12:45;22.40;99.90
24408;DHT22;12542;50.924;4.516;2022-09-17T07:15:11;22.60;99.90
24408;DHT22;12542;50.924;4.516;2022-09-17T07:17:38;21.50;99.90
24408;DHT22;12542;50.924;4.516;2022-09-17T07:20:06;20.30;99.90
24408;DHT22;12542;50.924;4.516;2022-09-17T07:22:32;19.30;99.90
24408;DHT22;12542;50.924;4.516;2022-09-17T07:25:01;18.30;99.90
24408;DHT22;12542;50.924;4.516;2022-09-17T07:27:27;17.60;99.90
24408;DHT22;12542;50.924;4.516;2022-09-17T07:29:53;17.00;99.90
24408;DHT22;12542;50.924;4.516;2022-09-17T07:32:20;16.60;99.90
24408;DHT22;12542;50.924;4.516;2022-09-17T07:34:46;16.10;99.90
24408;DHT22;12542;50.924;4.516;2022-09-17T07:37:11;15.60;99.90
24408;DHT22;12542;50.924;4.516;2022-09-17T07:39:37;15.60;99.90
24408;DHT22;12542;50.924;4.516;2022-09-17T07:42:03;15.20;99.90
24408;DHT22;12542;50.924;4.516;2022-09-17T07:44:29;15.30;99.90
24408;DHT22;12542;50.924;4.516;2022-09-17T07:46:56;15.20;99.90
24408;DHT22;12542;50.924;4.516;2022-09-17T07:49:22;15.20;99.90
24408;DHT22;12542;50.924;4.516;2022-09-17T07:51:48;15.10;99.90
24408;DHT22;12542;50.924;4.516;2022-09-17T07:54:13;15.10;99.90
24408;DHT22;12542;50.924;4.516;2022-09-17T07:56:40;15.10;99.90
24408;DHT22;12542;50.924;4.516;2022-09-17T07:59:06;15.00;99.90
24408;DHT22;12542;50.924;4.516;2022-09-17T08:01:32;15.00;99.90
24408;DHT22;12542;50.924;4.516;2022-09-17T08:04:02;14.90;99.90
24408;DHT22;12542;50.924;4.516;2022-09-17T08:06:29;14.90;99.90
24408;DHT22;12542;50.924;4.516;2022-09-17T08:08:56;15.00;99.90
24408;DHT22;12542;50.924;4.516;2022-09-17T08:11:24;15.00;99.90
24408;DHT22;12542;50.924;4.516;2022-09-17T08:13:52;15.00;99.90
24408;DHT22;12542;50.924;4.516;2022-09-17T08:16:18;15.00;99.90
24408;DHT22;12542;50.924;4.516;2022-09-17T08:18:53;15.30;99.90
24408;DHT22;12542;50.924;4.516;2022-09-17T08:21:19;16.30;99.90
24408;DHT22;12542;50.924;4.516;2022-09-17T08:23:46;17.50;99.90
24408;DHT22;12542;50.924;4.516;2022-09-17T08:26:14;18.20;99.90
24408;DHT22;12542;50.924;4.516;2022-09-17T08:28:46;18.10;99.90
24408;DHT22;12542;50.924;4.516;2022-09-17T08:31:13;17.70;99.90
24408;DHT22;12542;50.924;4.516;2022-09-17T08:33:40;17.40;99.90
24408;DHT22;12542;50.924;4.516;2022-09-17T08:36:07;17.20;99.90
24408;DHT22;12542;50.924;4.516;2022-09-17T08:38:35;17.10;99.90
24408;DHT22;12542;50.924;4.516;2022-09-17T08:46:43;17.60;99.90
24408;DHT22;12542;50.924;4.516;2022-09-17T08:52:13;18.90;99.90
24408;DHT22;12542;50.924;4.516;2022-09-17T08:54:53;19.40;99.90
24408;DHT22;12542;50.924;4.516;2022-09-17T09:05:30;19.90;99.90
24408;DHT22;12542;50.924;4.516;2022-09-17T09:08:04;19.00;99.90
24408;DHT22;12542;50.924;4.516;2022-09-17T09:10:48;18.20;99.90
24408;DHT22;12542;50.924;4.516;2022-09-17T09:13:17;17.40;99.90
24408;DHT22;12542;50.924;4.516;2022-09-17T09:15:48;16.80;99.90
24408;DHT22;12542;50.924;4.516;2022-09-17T09:18:24;16.50;99.90
24408;DHT22;12542;50.924;4.516;2022-09-17T09:26:19;15.80;99.90
24408;DHT22;12542;50.924;4.516;2022-09-17T09:34:06;17.20;99.90
24408;DHT22;12542;50.924;4.516;2022-09-17T09:36:37;17.80;99.90
24408;DHT22;12542;50.924;4.516;2022-09-17T09:42:09;18.80;99.90
24408;DHT22;12542;50.924;4.516;2022-09-17T09:44:36;19.10;99.90
24408;DHT22;12542;50.924;4.516;2022-09-17T09:50:03;19.00;99.90
24408;DHT22;12542;50.924;4.516;2022-09-17T09:55:39;19.50;99.90
24408;DHT22;12542;50.924;4.516;2022-09-17T09:58:11;19.40;99.90
24408;DHT22;12542;50.924;4.516;2022-09-17T10:00:42;18.70;99.90
24408;DHT22;12542;50.924;4.516;2022-09-17T10:03:34;18.30;99.90
24408;DHT22;12542;50.924;4.516;2022-09-17T10:06:06;17.60;99.90
24408;DHT22;12542;50.924;4.516;2022-09-17T10:08:35;17.00;99.90
24408;DHT22;12542;50.924;4.516;2022-09-17T10:11:04;16.70;99.90
24408;DHT22;12542;50.924;4.516;2022-09-17T10:13:34;16.70;99.90
24408;DHT22;12542;50.924;4.516;2022-09-17T10:16:16;16.70;99.90
24408;DHT22;12542;50.924;4.516;2022-09-17T10:18:46;16.80;99.90
24408;DHT22;12542;50.924;4.516;2022-09-17T10:21:40;16.80;99.90
24408;DHT22;12542;50.924;4.516;2022-09-17T10:24:27;16.80;99.90
24408;DHT22;12542;50.924;4.516;2022-09-17T10:27:04;16.70;99.90
24408;DHT22;12542;50.924;4.516;2022-09-17T10:29:32;16.40;99.90
24408;DHT22;12542;50.924;4.516;2022-09-17T10:31:58;16.10;99.90
24408;DHT22;12542;50.924;4.516;2022-09-17T10:34:31;15.60;99.90
24408;DHT22;12542;50.924;4.516;2022-09-17T10:36:57;15.30;99.90
24408;DHT22;12542;50.924;4.516;2022-09-17T10:39:30;15.20;99.90
24408;DHT22;12542;50.924;4.516;2022-09-17T10:44:33;14.80;99.90
24408;DHT22;12542;50.924;4.516;2022-09-17T10:47:12;14.80;99.90
24408;DHT22;12542;50.924;4.516;2022-09-17T10:49:42;15.00;99.90
24408;DHT22;12542;50.924;4.516;2022-09-17T10:52:37;15.10;99.90
24408;DHT22;12542;50.924;4.516;2022-09-17T11:03:52;16.40;99.90
24408;DHT22;12542;50.924;4.516;2022-09-17T11:06:48;16.40;99.90
24408;DHT22;12542;50.924;4.516;2022-09-17T11:09:38;16.40;99.90
24408;DHT22;12542;50.924;4.516;2022-09-17T11:12:35;16.30;99.90
24408;DHT22;12542;50.924;4.516;2022-09-17T11:18:31;16.10;99.90
24408;DHT22;12542;50.924;4.516;2022-09-17T11:26:45;14.90;99.90
24408;DHT22;12542;50.924;4.516;2022-09-17T11:40:43;14.10;99.90
24408;DHT22;12542;50.924;4.516;2022-09-17T11:43:17;14.20;99.90
24408;DHT22;12542;50.924;4.516;2022-09-17T11:48:21;14.90;99.90
24408;DHT22;12542;50.924;4.516;2022-09-17T11:50:56;15.00;99.90
24408;DHT22;12542;50.924;4.516;2022-09-17T11:53:39;15.20;99.90
24408;DHT22;12542;50.924;4.516;2022-09-17T11:56:19;15.40;99.90
24408;DHT22;12542;50.924;4.516;2022-09-17T12:01:55;15.90;99.90
24408;DHT22;12542;50.924;4.516;2022-09-17T12:04:37;15.90;99.90
24408;DHT22;12542;50.924;4.516;2022-09-17T12:07:20;16.20;99.90
24408;DHT22;12542;50.924;4.516;2022-09-17T12:09:51;16.40;99.90
24408;DHT22;12542;50.924;4.516;2022-09-17T12:12:21;16.60;99.90
24408;DHT22;12542;50.924;4.516;2022-09-17T12:15:19;16.70;99.90
24408;DHT22;12542;50.924;4.516;2022-09-17T12:17:53;17.20;99.90
24408;DHT22;12542;50.924;4.516;2022-09-17T12:20:43;17.50;99.90
24408;DHT22;12542;50.924;4.516;2022-09-17T12:23:13;17.60;99.90
24408;DHT22;12542;50.924;4.516;2022-09-17T12:26:05;17.90;99.90
24408;DHT22;12542;50.924;4.516;2022-09-17T12:28:42;18.10;99.90
24408;DHT22;12542;50.924;4.516;2022-09-17T12:45:26;18.20;99.90
24408;DHT22;12542;50.924;4.516;2022-09-17T12:48:35;18.50;99.90
24408;DHT22;12542;50.924;4.516;2022-09-17T12:51:35;18.30;99.90
24408;DHT22;12542;50.924;4.516;2022-09-17T12:54:39;17.90;99.90
24408;DHT22;12542;50.924;4.516;2022-09-17T12:59:33;17.40;99.90
24408;DHT22;12542;50.924;4.516;2022-09-17T13:02:21;17.50;99.90
24408;DHT22;12542;50.924;4.516;2022-09-17T13:19:39;18.00;99.90
24408;DHT22;12542;50.924;4.516;2022-09-17T13:22:16;18.20;99.90
24408;DHT22;12542;50.924;4.516;2022-09-17T13:24:43;18.30;99.90
24408;DHT22;12542;50.924;4.516;2022-09-17T13:27:23;18.50;99.90
24408;DHT22;12542;50.924;4.516;2022-09-17T13:37:58;18.50;99.90
24408;DHT22;12542;50.924;4.516;2022-09-17T13:40:32;18.30;99.90
24408;DHT22;12542;50.924;4.516;2022-09-17T13:43:15;18.20;99.90
24408;DHT22;12542;50.924;4.516;2022-09-17T13:48:33;18.10;99.90
24408;DHT22;12542;50.924;4.516;2022-09-17T13:54:16;17.80;99.90
24408;DHT22;12542;50.924;4.516;2022-09-17T13:56:50;17.60;99.90
24408;DHT22;12542;50.924;4.516;2022-09-17T13:59:23;17.60;99.90
24408;DHT22;12542;50.924;4.516;2022-09-17T14:10:26;17.40;99.90
24408;DHT22;12542;50.924;4.516;2022-09-17T14:12:50;17.50;99.90
24408;DHT22;12542;50.924;4.516;2022-09-17T14:18:31;17.10;99.90
24408;DHT22;12542;50.924;4.516;2022-09-17T14:20:47;17.00;99.90
24408;DHT22;12542;50.924;4.516;2022-09-17T14:23:14;16.90;99.90
24408;DHT22;12542;50.924;4.516;2022-09-17T14:25:48;16.80;99.90
24408;DHT22;12542;50.924;4.516;2022-09-17T14:28:32;16.70;99.90
24408;DHT22;12542;50.924;4.516;2022-09-17T14:31:01;16.70;99.90
24408;DHT22;12542;50.924;4.516;2022-09-17T14:33:29;16.60;99.90
24408;DHT22;12542;50.924;4.516;2022-09-17T14:36:07;16.50;99.90
24408;DHT22;12542;50.924;4.516;2022-09-17T14:38:54;16.40;99.90
24408;DHT22;12542;50.924;4.516;2022-09-17T14:41:24;16.20;99.90
24408;DHT22;12542;50.924;4.516;2022-09-17T14:44:04;16.20;99.90
24408;DHT22;12542;50.924;4.516;2022-09-17T14:46:37;16.00;99.90
24408;DHT22;12542;50.924;4.516;2022-09-17T14:51:40;16.00;99.90
24408;DHT22;12542;50.924;4.516;2022-09-17T14:54:23;16.00;99.90
24408;DHT22;12542;50.924;4.516;2022-09-17T14:56:53;16.00;99.90
24408;DHT22;12542;50.924;4.516;2022-09-17T14:59:20;16.10;99.90
24408;DHT22;12542;50.924;4.516;2022-09-17T15:01:47;16.10;99.90
24408;DHT22;12542;50.924;4.516;2022-09-17T15:06:43;16.10;99.90
24408;DHT22;12542;50.924;4.516;2022-09-17T15:09:22;16.00;99.90
24408;DHT22;12542;50.924;4.516;2022-09-17T15:11:51;16.10;99.90
24408;DHT22;12542;50.924;4.516;2022-09-17T15:14:28;16.00;99.90
24408;DHT22;12542;50.924;4.516;2022-09-17T15:16:57;15.90;99.90
24408;DHT22;12542;50.924;4.516;2022-09-17T15:19:33;15.90;99.90
24408;DHT22;12542;50.924;4.516;2022-09-17T15:24:59;16.20;99.90
24408;DHT22;12542;50.924;4.516;2022-09-17T15:27:45;16.20;99.90
24408;DHT22;12542;50.924;4.516;2022-09-17T15:30:20;16.40;99.90
24408;DHT22;12542;50.924;4.516;2022-09-17T15:35:25;15.60;99.90
24408;DHT22;12542;50.924;4.516;2022-09-17T15:37:56;15.10;99.90
24408;DHT22;12542;50.924;4.516;2022-09-17T15:43:12;15.00;99.90
24408;DHT22;12542;50.924;4.516;2022-09-17T15:45:39;14.80;99.90
24408;DHT22;12542;50.924;4.516;2022-09-17T15:50:58;14.50;99.90
24408;DHT22;12542;50.924;4.516;2022-09-17T15:53:26;14.50;99.90
24408;DHT22;12542;50.924;4.516;2022-09-17T15:58:29;14.20;99.90
24408;DHT22;12542;50.924;4.516;2022-09-17T16:08:51;13.80;99.90
24408;DHT22;12542;50.924;4.516;2022-09-17T16:11:19;13.80;99.90
24408;DHT22;12542;50.924;4.516;2022-09-17T16:13:46;13.90;99.90
24408;DHT22;12542;50.924;4.516;2022-09-17T16:16:18;14.00;99.90
24408;DHT22;12542;50.924;4.516;2022-09-17T16:18:44;14.00;99.90
24408;DHT22;12542;50.924;4.516;2022-09-17T16:21:12;13.90;99.90
24408;DHT22;12542;50.924;4.516;2022-09-17T16:23:39;13.90;99.90
24408;DHT22;12542;50.924;4.516;2022-09-17T16:26:05;14.10;99.90
24408;DHT22;12542;50.924;4.516;2022-09-17T16:28:32;14.20;99.90
24408;DHT22;12542;50.924;4.516;2022-09-17T16:30:58;14.10;99.90
24408;DHT22;12542;50.924;4.516;2022-09-17T16:33:24;14.10;99.90
24408;DHT22;12542;50.924;4.516;2022-09-17T16:35:56;14.00;99.90
24408;DHT22;12542;50.924;4.516;2022-09-17T16:38:21;14.20;99.90
24408;DHT22;12542;50.924;4.516;2022-09-17T16:40:47;14.20;99.90
24408;DHT22;12542;50.924;4.516;2022-09-17T16:43:13;14.20;99.90
24408;DHT22;12542;50.924;4.516;2022-09-17T16:45:39;14.20;99.90
24408;DHT22;12542;50.924;4.516;2022-09-17T16:48:06;14.20;99.90
24408;DHT22;12542;50.924;4.516;2022-09-17T16:50:33;14.10;99.90
24408;DHT22;12542;50.924;4.516;2022-09-17T16:52:59;14.20;99.90
24408;DHT22;12542;50.924;4.516;2022-09-17T16:55:25;14.20;99.90
24408;DHT22;12542;50.924;4.516;2022-09-17T16:57:51;14.20;99.90
24408;DHT22;12542;50.924;4.516;2022-09-17T17:00:18;14.10;99.90
24408;DHT22;12542;50.924;4.516;2022-09-17T17:02:55;14.10;99.90
24408;DHT22;12542;50.924;4.516;2022-09-17T17:05:23;14.20;99.90
24408;DHT22;12542;50.924;4.516;2022-09-17T17:07:49;14.20;99.90
24408;DHT22;12542;50.924;4.516;2022-09-17T17:10:15;14.20;99.90
24408;DHT22;12542;50.924;4.516;2022-09-17T17:12:41;14.20;99.90
24408;DHT22;12542;50.924;4.516;2022-09-17T17:15:08;14.10;99.90
24408;DHT22;12542;50.924;4.516;2022-09-17T17:17:33;14.10;99.90
24408;DHT22;12542;50.924;4.516;2022-09-17T17:20:01;14.30;99.90
24408;DHT22;12542;50.924;4.516;2022-09-17T17:22:28;14.20;99.90
24408;DHT22;12542;50.924;4.516;2022-09-17T17:24:54;14.20;99.90
24408;DHT22;12542;50.924;4.516;2022-09-17T17:27:20;14.20;99.90
24408;DHT22;12542;50.924;4.516;2022-09-17T17:29:47;14.20;99.90
24408;DHT22;12542;50.924;4.516;2022-09-17T17:32:12;14.00;99.90
24408;DHT22;12542;50.924;4.516;2022-09-17T17:34:38;14.20;99.90
24408;DHT22;12542;50.924;4.516;2022-09-17T17:37:04;14.10;99.90
24408;DHT22;12542;50.924;4.516;2022-09-17T17:39:30;14.10;99.90
24408;DHT22;12542;50.924;4.516;2022-09-17T17:41:56;14.10;99.90
24408;DHT22;12542;50.924;4.516;2022-09-17T17:44:22;13.90;99.90
24408;DHT22;12542;50.924;4.516;2022-09-17T17:46:48;13.90;99.90
24408;DHT22;12542;50.924;4.516;2022-09-17T17:49:14;13.90;99.90
24408;DHT22;12542;50.924;4.516;2022-09-17T17:51:41;14.10;99.90
24408;DHT22;12542;50.924;4.516;2022-09-17T17:54:07;14.00;99.90
24408;DHT22;12542;50.924;4.516;2022-09-17T17:56:34;14.00;99.90
24408;DHT22;12542;50.924;4.516;2022-09-17T17:59:02;13.80;99.90
24408;DHT22;12542;50.924;4.516;2022-09-17T18:01:29;13.60;99.90
24408;DHT22;12542;50.924;4.516;2022-09-17T18:03:59;13.80;99.90
24408;DHT22;12542;50.924;4.516;2022-09-17T18:06:26;13.80;99.90
24408;DHT22;12542;50.924;4.516;2022-09-17T18:08:56;13.70;99.90
24408;DHT22;12542;50.924;4.516;2022-09-17T18:11:22;13.70;99.90
24408;DHT22;12542;50.924;4.516;2022-09-17T18:13:53;13.70;99.90
24408;DHT22;12542;50.924;4.516;2022-09-17T18:16:20;13.70;99.90
24408;DHT22;12542;50.924;4.516;2022-09-17T18:18:46;13.60;99.90
24408;DHT22;12542;50.924;4.516;2022-09-17T18:21:16;13.60;99.90
24408;DHT22;12542;50.924;4.516;2022-09-17T18:23:43;13.60;99.90
24408;DHT22;12542;50.924;4.516;2022-09-17T18:26:25;13.70;99.90
24408;DHT22;12542;50.924;4.516;2022-09-17T18:28:52;13.60;99.90
24408;DHT22;12542;50.924;4.516;2022-09-17T18:31:26;13.60;99.90
24408;DHT22;12542;50.924;4.516;2022-09-17T18:34:07;13.60;99.90
24408;DHT22;12542;50.924;4.516;2022-09-17T18:36:35;13.80;99.90
24408;DHT22;12542;50.924;4.516;2022-09-17T18:39:03;13.80;99.90
24408;DHT22;12542;50.924;4.516;2022-09-17T18:41:31;13.80;99.90
24408;DHT22;12542;50.924;4.516;2022-09-17T18:43:57;13.70;99.90
24408;DHT22;12542;50.924;4.516;2022-09-17T18:46:26;13.70;99.90
24408;DHT22;12542;50.924;4.516;2022-09-17T18:48:53;13.80;99.90
24408;DHT22;12542;50.924;4.516;2022-09-17T18:51:20;13.50;99.90
24408;DHT22;12542;50.924;4.516;2022-09-17T18:53:46;13.50;99.90
24408;DHT22;12542;50.924;4.516;2022-09-17T18:58:41;13.40;99.90
24408;DHT22;12542;50.924;4.516;2022-09-17T19:01:06;13.50;99.90
24408;DHT22;12542;50.924;4.516;2022-09-17T19:03:33;13.40;99.90
24408;DHT22;12542;50.924;4.516;2022-09-17T19:06:00;13.50;99.90
24408;DHT22;12542;50.924;4.516;2022-09-17T19:08:28;13.50;99.90